sensor_id;sensor_type;location;lat;lon;timestamp;P1;durP1;ratioP1;P2;durP2;ratioP2
59685;SDS011;45554;51.096;16.976;2022-10-16T00:01:35;9.00;;;5.30;;
59685;SDS011;45554;51.096;16.976;2022-10-16T00:04:04;7.40;;;4.80;;
59685;SDS011;45554;51.096;16.976;2022-10-16T00:06:32;7.90;;;4.90;;
59685;SDS011;45554;51.096;16.976;2022-10-16T00:09:00;8.10;;;4.60;;
59685;SDS011;45554;51.096;16.976;2022-10-16T00:11:32;7.80;;;5.30;;
59685;SDS011;45554;51.096;16.976;2022-10-16T00:14:05;9.00;;;5.10;;
59685;SDS011;45554;51.096;16.976;2022-10-16T00:16:35;9.50;;;5.40;;
59685;SDS011;45554;51.096;16.976;2022-10-16T00:19:03;7.80;;;4.90;;
59685;SDS011;45554;51.096;16.976;2022-10-16T00:21:31;11.80;;;5.40;;
59685;SDS011;45554;51.096;16.976;2022-10-16T00:24:02;8.90;;;5.80;;
59685;SDS011;45554;51.096;16.976;2022-10-16T00:26:33;8.70;;;5.40;;
59685;SDS011;45554;51.096;16.976;2022-10-16T00:29:02;8.50;;;5.50;;
59685;SDS011;45554;51.096;16.976;2022-10-16T00:31:31;8.60;;;5.30;;
59685;SDS011;45554;51.096;16.976;2022-10-16T00:33:59;8.50;;;5.50;;
59685;SDS011;45554;51.096;16.976;2022-10-16T00:36:27;9.90;;;5.60;;
59685;SDS011;45554;51.096;16.976;2022-10-16T00:38:56;8.50;;;5.90;;
59685;SDS011;45554;51.096;16.976;2022-10-16T00:41:31;8.90;;;5.60;;
59685;SDS011;45554;51.096;16.976;2022-10-16T00:44:00;9.20;;;5.20;;
59685;SDS011;45554;51.096;16.976;2022-10-16T00:51:45;9.00;;;5.70;;
59685;SDS011;45554;51.096;16.976;2022-10-16T00:54:17;12.10;;;5.70;;
59685;SDS011;45554;51.096;16.976;2022-10-16T00:56:48;8.90;;;5.90;;
59685;SDS011;45554;51.096;16.976;2022-10-16T00:59:19;9.30;;;6.10;;
59685;SDS011;45554;51.096;16.976;2022-10-16T01:01:51;9.60;;;5.60;;
59685;SDS011;45554;51.096;16.976;2022-10-16T01:04:21;10.70;;;5.70;;
59685;SDS011;45554;51.096;16.976;2022-10-16T01:09:40;11.10;;;6.30;;
59685;SDS011;45554;51.096;16.976;2022-10-16T01:12:22;9.50;;;5.50;;
59685;SDS011;45554;51.096;16.976;2022-10-16T01:15:08;9.40;;;5.70;;
59685;SDS011;45554;51.096;16.976;2022-10-16T01:17:44;9.90;;;6.10;;
59685;SDS011;45554;51.096;16.976;2022-10-16T01:29:18;12.90;;;5.30;;
59685;SDS011;45554;51.096;16.976;2022-10-16T01:31:56;8.80;;;5.10;;
59685;SDS011;45554;51.096;16.976;2022-10-16T01:34:31;8.40;;;5.20;;
59685;SDS011;45554;51.096;16.976;2022-10-16T01:37:14;9.10;;;5.70;;
59685;SDS011;45554;51.096;16.976;2022-10-16T01:39:47;9.00;;;5.20;;
59685;SDS011;45554;51.096;16.976;2022-10-16T01:42:20;10.50;;;6.00;;
59685;SDS011;45554;51.096;16.976;2022-10-16T01:44:52;8.80;;;5.30;;
59685;SDS011;45554;51.096;16.976;2022-10-16T01:47:22;11.10;;;5.80;;
59685;SDS011;45554;51.096;16.976;2022-10-16T01:49:53;9.90;;;5.80;;
59685;SDS011;45554;51.096;16.976;2022-10-16T01:52:23;9.00;;;5.20;;
59685;SDS011;45554;51.096;16.976;2022-10-16T01:54:56;8.70;;;4.70;;
59685;SDS011;45554;51.096;16.976;2022-10-16T01:57:25;8.60;;;4.90;;
59685;SDS011;45554;51.096;16.976;2022-10-16T01:59:56;9.70;;;5.30;;
59685;SDS011;45554;51.096;16.976;2022-10-16T02:02:39;8.70;;;5.70;;
59685;SDS011;45554;51.096;16.976;2022-10-16T02:05:15;8.60;;;5.50;;
59685;SDS011;45554;51.096;16.976;2022-10-16T02:07:51;10.30;;;5.90;;
59685;SDS011;45554;51.096;16.976;2022-10-16T02:10:19;9.30;;;5.50;;
59685;SDS011;45554;51.096;16.976;2022-10-16T02:12:50;9.30;;;5.60;;
59685;SDS011;45554;51.096;16.976;2022-10-16T02:15:24;9.70;;;5.30;;
59685;SDS011;45554;51.096;16.976;2022-10-16T02:17:52;11.30;;;5.70;;
59685;SDS011;45554;51.096;16.976;2022-10-16T02:20:20;8.30;;;5.50;;
59685;SDS011;45554;51.096;16.976;2022-10-16T02:22:53;8.10;;;5.10;;
59685;SDS011;45554;51.096;16.976;2022-10-16T02:25:27;9.70;;;5.30;;
59685;SDS011;45554;51.096;16.976;2022-10-16T02:28:03;7.90;;;5.20;;
59685;SDS011;45554;51.096;16.976;2022-10-16T02:30:38;9.10;;;5.30;;
59685;SDS011;45554;51.096;16.976;2022-10-16T02:33:12;7.60;;;4.90;;
59685;SDS011;45554;51.096;16.976;2022-10-16T02:35:42;9.00;;;5.30;;
59685;SDS011;45554;51.096;16.976;2022-10-16T02:38:12;9.10;;;5.90;;
59685;SDS011;45554;51.096;16.976;2022-10-16T02:40:42;9.70;;;6.20;;
59685;SDS011;45554;51.096;16.976;2022-10-16T02:43:11;9.80;;;6.20;;
59685;SDS011;45554;51.096;16.976;2022-10-16T02:45:39;8.90;;;5.30;;
59685;SDS011;45554;51.096;16.976;2022-10-16T02:48:09;9.50;;;5.90;;
59685;SDS011;45554;51.096;16.976;2022-10-16T02:50:37;10.20;;;6.00;;
59685;SDS011;45554;51.096;16.976;2022-10-16T02:53:05;9.80;;;6.30;;
59685;SDS011;45554;51.096;16.976;2022-10-16T02:55:33;9.70;;;5.80;;
59685;SDS011;45554;51.096;16.976;2022-10-16T02:58:01;8.70;;;5.40;;
59685;SDS011;45554;51.096;16.976;2022-10-16T03:00:29;9.40;;;5.90;;
59685;SDS011;45554;51.096;16.976;2022-10-16T03:02:57;9.80;;;6.30;;
59685;SDS011;45554;51.096;16.976;2022-10-16T03:05:25;10.20;;;5.10;;
59685;SDS011;45554;51.096;16.976;2022-10-16T03:07:52;11.00;;;6.00;;
59685;SDS011;45554;51.096;16.976;2022-10-16T03:10:20;10.90;;;6.00;;
59685;SDS011;45554;51.096;16.976;2022-10-16T03:12:48;9.40;;;5.80;;
59685;SDS011;45554;51.096;16.976;2022-10-16T03:15:16;9.70;;;5.80;;
59685;SDS011;45554;51.096;16.976;2022-10-16T03:17:44;9.40;;;5.60;;
59685;SDS011;45554;51.096;16.976;2022-10-16T03:20:12;8.90;;;5.40;;
59685;SDS011;45554;51.096;16.976;2022-10-16T03:22:40;11.10;;;6.00;;
59685;SDS011;45554;51.096;16.976;2022-10-16T03:25:08;10.70;;;6.00;;
59685;SDS011;45554;51.096;16.976;2022-10-16T03:27:36;9.70;;;6.70;;
59685;SDS011;45554;51.096;16.976;2022-10-16T03:30:05;10.50;;;6.40;;
59685;SDS011;45554;51.096;16.976;2022-10-16T03:32:37;9.50;;;6.00;;
59685;SDS011;45554;51.096;16.976;2022-10-16T03:35:05;10.00;;;6.00;;
59685;SDS011;45554;51.096;16.976;2022-10-16T03:37:35;9.80;;;5.80;;
59685;SDS011;45554;51.096;16.976;2022-10-16T03:40:03;9.10;;;5.60;;
59685;SDS011;45554;51.096;16.976;2022-10-16T03:42:32;11.10;;;5.80;;
59685;SDS011;45554;51.096;16.976;2022-10-16T03:50:00;9.80;;;5.60;;
59685;SDS011;45554;51.096;16.976;2022-10-16T03:52:28;9.90;;;5.90;;
59685;SDS011;45554;51.096;16.976;2022-10-16T03:54:57;9.30;;;5.70;;
59685;SDS011;45554;51.096;16.976;2022-10-16T03:57:25;8.90;;;5.70;;
59685;SDS011;45554;51.096;16.976;2022-10-16T03:59:53;8.70;;;5.30;;
59685;SDS011;45554;51.096;16.976;2022-10-16T04:02:21;8.00;;;5.60;;
59685;SDS011;45554;51.096;16.976;2022-10-16T04:04:48;8.90;;;5.60;;
59685;SDS011;45554;51.096;16.976;2022-10-16T04:07:16;8.50;;;5.20;;
59685;SDS011;45554;51.096;16.976;2022-10-16T04:09:44;9.20;;;5.70;;
59685;SDS011;45554;51.096;16.976;2022-10-16T04:12:11;8.90;;;5.40;;
59685;SDS011;45554;51.096;16.976;2022-10-16T04:14:39;10.40;;;5.50;;
59685;SDS011;45554;51.096;16.976;2022-10-16T04:17:08;12.00;;;6.30;;
59685;SDS011;45554;51.096;16.976;2022-10-16T04:19:35;9.50;;;5.40;;
59685;SDS011;45554;51.096;16.976;2022-10-16T04:22:03;9.50;;;5.40;;
59685;SDS011;45554;51.096;16.976;2022-10-16T04:24:31;7.90;;;4.90;;
59685;SDS011;45554;51.096;16.976;2022-10-16T04:26:59;8.10;;;5.50;;
59685;SDS011;45554;51.096;16.976;2022-10-16T04:29:26;8.60;;;5.40;;
59685;SDS011;45554;51.096;16.976;2022-10-16T04:31:54;10.40;;;5.50;;
59685;SDS011;45554;51.096;16.976;2022-10-16T04:34:22;8.80;;;5.30;;
59685;SDS011;45554;51.096;16.976;2022-10-16T04:36:50;8.70;;;5.70;;
59685;SDS011;45554;51.096;16.976;2022-10-16T04:39:18;10.00;;;5.90;;
59685;SDS011;45554;51.096;16.976;2022-10-16T04:41:46;10.00;;;5.80;;
59685;SDS011;45554;51.096;16.976;2022-10-16T04:44:13;7.30;;;4.90;;
59685;SDS011;45554;51.096;16.976;2022-10-16T04:46:42;8.00;;;5.20;;
59685;SDS011;45554;51.096;16.976;2022-10-16T04:49:11;8.10;;;5.40;;
59685;SDS011;45554;51.096;16.976;2022-10-16T04:51:39;8.70;;;6.00;;
59685;SDS011;45554;51.096;16.976;2022-10-16T04:54:08;9.40;;;5.80;;
59685;SDS011;45554;51.096;16.976;2022-10-16T04:56:36;9.30;;;6.00;;
59685;SDS011;45554;51.096;16.976;2022-10-16T04:59:10;11.10;;;6.40;;
59685;SDS011;45554;51.096;16.976;2022-10-16T05:01:38;8.60;;;5.80;;
59685;SDS011;45554;51.096;16.976;2022-10-16T05:04:06;9.50;;;5.30;;
59685;SDS011;45554;51.096;16.976;2022-10-16T05:06:34;8.50;;;5.60;;
59685;SDS011;45554;51.096;16.976;2022-10-16T05:09:02;9.10;;;5.80;;
59685;SDS011;45554;51.096;16.976;2022-10-16T05:11:30;10.30;;;6.60;;
59685;SDS011;45554;51.096;16.976;2022-10-16T05:13:58;9.80;;;6.40;;
59685;SDS011;45554;51.096;16.976;2022-10-16T05:16:27;9.30;;;6.00;;
59685;SDS011;45554;51.096;16.976;2022-10-16T05:18:55;9.80;;;6.80;;
59685;SDS011;45554;51.096;16.976;2022-10-16T05:21:43;8.80;;;6.20;;
59685;SDS011;45554;51.096;16.976;2022-10-16T05:24:12;9.70;;;6.90;;
59685;SDS011;45554;51.096;16.976;2022-10-16T05:26:40;11.60;;;7.40;;
59685;SDS011;45554;51.096;16.976;2022-10-16T05:29:09;11.60;;;7.60;;
59685;SDS011;45554;51.096;16.976;2022-10-16T05:31:36;9.70;;;6.00;;
59685;SDS011;45554;51.096;16.976;2022-10-16T05:34:04;10.80;;;6.80;;
59685;SDS011;45554;51.096;16.976;2022-10-16T05:36:32;11.60;;;6.80;;
59685;SDS011;45554;51.096;16.976;2022-10-16T05:41:30;12.10;;;7.50;;
59685;SDS011;45554;51.096;16.976;2022-10-16T05:43:58;11.00;;;6.70;;
59685;SDS011;45554;51.096;16.976;2022-10-16T05:46:26;10.20;;;6.00;;
59685;SDS011;45554;51.096;16.976;2022-10-16T05:48:56;10.00;;;6.20;;
59685;SDS011;45554;51.096;16.976;2022-10-16T05:51:25;8.20;;;5.30;;
59685;SDS011;45554;51.096;16.976;2022-10-16T05:53:53;11.70;;;6.10;;
59685;SDS011;45554;51.096;16.976;2022-10-16T05:56:21;9.40;;;5.80;;
59685;SDS011;45554;51.096;16.976;2022-10-16T05:58:49;9.60;;;5.50;;
59685;SDS011;45554;51.096;16.976;2022-10-16T06:01:17;8.10;;;5.20;;
59685;SDS011;45554;51.096;16.976;2022-10-16T06:03:46;10.00;;;5.40;;
59685;SDS011;45554;51.096;16.976;2022-10-16T06:06:15;8.20;;;5.50;;
59685;SDS011;45554;51.096;16.976;2022-10-16T06:08:46;8.30;;;5.00;;
59685;SDS011;45554;51.096;16.976;2022-10-16T06:11:16;10.40;;;5.60;;
59685;SDS011;45554;51.096;16.976;2022-10-16T06:13:50;9.50;;;6.00;;
59685;SDS011;45554;51.096;16.976;2022-10-16T06:16:30;7.90;;;4.70;;
59685;SDS011;45554;51.096;16.976;2022-10-16T06:18:58;9.20;;;5.80;;
59685;SDS011;45554;51.096;16.976;2022-10-16T06:21:29;10.50;;;5.70;;
59685;SDS011;45554;51.096;16.976;2022-10-16T06:23:57;8.20;;;5.50;;
59685;SDS011;45554;51.096;16.976;2022-10-16T06:26:28;8.30;;;4.80;;
59685;SDS011;45554;51.096;16.976;2022-10-16T06:28:58;10.20;;;5.40;;
59685;SDS011;45554;51.096;16.976;2022-10-16T06:31:29;7.20;;;4.50;;
59685;SDS011;45554;51.096;16.976;2022-10-16T06:34:01;7.40;;;4.40;;
59685;SDS011;45554;51.096;16.976;2022-10-16T06:36:29;10.10;;;4.70;;
59685;SDS011;45554;51.096;16.976;2022-10-16T06:38:58;9.80;;;5.10;;
59685;SDS011;45554;51.096;16.976;2022-10-16T06:41:26;8.00;;;4.70;;
59685;SDS011;45554;51.096;16.976;2022-10-16T06:43:54;9.50;;;4.30;;
59685;SDS011;45554;51.096;16.976;2022-10-16T06:46:23;8.00;;;4.30;;
59685;SDS011;45554;51.096;16.976;2022-10-16T06:51:21;7.40;;;4.20;;
59685;SDS011;45554;51.096;16.976;2022-10-16T06:53:51;6.30;;;3.70;;
59685;SDS011;45554;51.096;16.976;2022-10-16T06:56:30;6.50;;;3.90;;
59685;SDS011;45554;51.096;16.976;2022-10-16T07:01:27;6.10;;;3.60;;
59685;SDS011;45554;51.096;16.976;2022-10-16T07:03:55;6.00;;;3.50;;
59685;SDS011;45554;51.096;16.976;2022-10-16T07:06:24;5.80;;;3.80;;
59685;SDS011;45554;51.096;16.976;2022-10-16T07:08:53;6.00;;;3.40;;
59685;SDS011;45554;51.096;16.976;2022-10-16T07:11:22;6.20;;;3.60;;
59685;SDS011;45554;51.096;16.976;2022-10-16T07:13:50;5.50;;;3.30;;
59685;SDS011;45554;51.096;16.976;2022-10-16T07:16:23;6.40;;;3.40;;
59685;SDS011;45554;51.096;16.976;2022-10-16T07:18:56;8.30;;;3.30;;
59685;SDS011;45554;51.096;16.976;2022-10-16T07:21:28;7.60;;;3.50;;
59685;SDS011;45554;51.096;16.976;2022-10-16T07:24:05;6.30;;;3.50;;
59685;SDS011;45554;51.096;16.976;2022-10-16T07:26:35;5.50;;;3.40;;
59685;SDS011;45554;51.096;16.976;2022-10-16T07:29:07;7.00;;;3.20;;
59685;SDS011;45554;51.096;16.976;2022-10-16T07:31:41;6.70;;;3.20;;
59685;SDS011;45554;51.096;16.976;2022-10-16T07:34:11;5.70;;;3.40;;
59685;SDS011;45554;51.096;16.976;2022-10-16T07:36:41;6.20;;;3.10;;
59685;SDS011;45554;51.096;16.976;2022-10-16T07:39:10;5.60;;;3.10;;
59685;SDS011;45554;51.096;16.976;2022-10-16T07:41:39;6.30;;;2.90;;
59685;SDS011;45554;51.096;16.976;2022-10-16T07:44:06;5.30;;;3.10;;
59685;SDS011;45554;51.096;16.976;2022-10-16T07:46:35;5.70;;;3.40;;
59685;SDS011;45554;51.096;16.976;2022-10-16T07:49:03;5.50;;;3.00;;
59685;SDS011;45554;51.096;16.976;2022-10-16T07:51:32;6.00;;;2.90;;
59685;SDS011;45554;51.096;16.976;2022-10-16T07:54:00;4.40;;;2.50;;
59685;SDS011;45554;51.096;16.976;2022-10-16T07:56:30;5.60;;;2.90;;
59685;SDS011;45554;51.096;16.976;2022-10-16T07:58:59;4.90;;;2.60;;
59685;SDS011;45554;51.096;16.976;2022-10-16T08:01:26;7.20;;;2.90;;
59685;SDS011;45554;51.096;16.976;2022-10-16T08:03:54;5.30;;;2.60;;
59685;SDS011;45554;51.096;16.976;2022-10-16T08:06:22;5.90;;;2.80;;
59685;SDS011;45554;51.096;16.976;2022-10-16T08:08:55;4.40;;;2.60;;
59685;SDS011;45554;51.096;16.976;2022-10-16T08:11:24;4.50;;;2.60;;
59685;SDS011;45554;51.096;16.976;2022-10-16T08:13:52;4.50;;;2.80;;
59685;SDS011;45554;51.096;16.976;2022-10-16T08:16:20;4.20;;;2.30;;
59685;SDS011;45554;51.096;16.976;2022-10-16T08:18:48;4.30;;;2.30;;
59685;SDS011;45554;51.096;16.976;2022-10-16T08:21:20;4.30;;;2.30;;
59685;SDS011;45554;51.096;16.976;2022-10-16T08:23:50;4.10;;;2.50;;
59685;SDS011;45554;51.096;16.976;2022-10-16T08:26:24;4.30;;;2.70;;
59685;SDS011;45554;51.096;16.976;2022-10-16T08:28:54;5.40;;;2.70;;
59685;SDS011;45554;51.096;16.976;2022-10-16T08:31:25;3.70;;;2.30;;
59685;SDS011;45554;51.096;16.976;2022-10-16T08:33:54;3.80;;;2.30;;
59685;SDS011;45554;51.096;16.976;2022-10-16T08:36:22;4.00;;;2.60;;
59685;SDS011;45554;51.096;16.976;2022-10-16T08:38:50;4.50;;;2.50;;
59685;SDS011;45554;51.096;16.976;2022-10-16T08:46:39;4.10;;;2.20;;
59685;SDS011;45554;51.096;16.976;2022-10-16T08:49:17;4.20;;;2.30;;
59685;SDS011;45554;51.096;16.976;2022-10-16T08:51:48;3.70;;;2.10;;
59685;SDS011;45554;51.096;16.976;2022-10-16T08:57:19;4.60;;;2.30;;
59685;SDS011;45554;51.096;16.976;2022-10-16T08:59:51;4.40;;;2.20;;
59685;SDS011;45554;51.096;16.976;2022-10-16T09:02:31;4.80;;;2.50;;
59685;SDS011;45554;51.096;16.976;2022-10-16T09:14:22;5.70;;;3.00;;
59685;SDS011;45554;51.096;16.976;2022-10-16T09:16:28;4.80;;;2.30;;
59685;SDS011;45554;51.096;16.976;2022-10-16T09:21:40;4.40;;;2.40;;
59685;SDS011;45554;51.096;16.976;2022-10-16T09:26:41;3.20;;;2.20;;
59685;SDS011;45554;51.096;16.976;2022-10-16T09:29:11;4.30;;;2.30;;
59685;SDS011;45554;51.096;16.976;2022-10-16T09:31:41;3.70;;;2.40;;
59685;SDS011;45554;51.096;16.976;2022-10-16T09:34:28;3.60;;;2.40;;
59685;SDS011;45554;51.096;16.976;2022-10-16T09:37:03;4.50;;;2.00;;
59685;SDS011;45554;51.096;16.976;2022-10-16T09:39:43;3.50;;;2.10;;
59685;SDS011;45554;51.096;16.976;2022-10-16T09:42:32;3.50;;;2.30;;
59685;SDS011;45554;51.096;16.976;2022-10-16T09:45:04;3.40;;;2.00;;
59685;SDS011;45554;51.096;16.976;2022-10-16T09:47:35;3.10;;;2.10;;
59685;SDS011;45554;51.096;16.976;2022-10-16T09:50:28;3.70;;;2.40;;
59685;SDS011;45554;51.096;16.976;2022-10-16T09:53:03;3.50;;;2.20;;
59685;SDS011;45554;51.096;16.976;2022-10-16T09:55:48;4.10;;;2.10;;
59685;SDS011;45554;51.096;16.976;2022-10-16T09:58:21;3.50;;;2.40;;
59685;SDS011;45554;51.096;16.976;2022-10-16T10:00:51;3.80;;;2.20;;
59685;SDS011;45554;51.096;16.976;2022-10-16T10:03:34;5.00;;;1.90;;
59685;SDS011;45554;51.096;16.976;2022-10-16T10:06:42;3.40;;;2.10;;
59685;SDS011;45554;51.096;16.976;2022-10-16T10:22:56;3.40;;;2.00;;
59685;SDS011;45554;51.096;16.976;2022-10-16T10:28:38;3.50;;;2.20;;
59685;SDS011;45554;51.096;16.976;2022-10-16T10:31:48;3.50;;;2.30;;
59685;SDS011;45554;51.096;16.976;2022-10-16T10:51:01;2.50;;;1.90;;
59685;SDS011;45554;51.096;16.976;2022-10-16T10:53:40;4.60;;;2.10;;
59685;SDS011;45554;51.096;16.976;2022-10-16T10:56:45;3.80;;;2.10;;
59685;SDS011;45554;51.096;16.976;2022-10-16T11:02:40;3.40;;;2.10;;
59685;SDS011;45554;51.096;16.976;2022-10-16T11:07:44;3.20;;;2.10;;
59685;SDS011;45554;51.096;16.976;2022-10-16T11:10:24;3.10;;;1.90;;
59685;SDS011;45554;51.096;16.976;2022-10-16T11:15:53;3.40;;;1.90;;
59685;SDS011;45554;51.096;16.976;2022-10-16T11:18:30;4.80;;;2.20;;
59685;SDS011;45554;51.096;16.976;2022-10-16T11:21:14;3.60;;;2.10;;
59685;SDS011;45554;51.096;16.976;2022-10-16T11:23:57;2.90;;;2.00;;
59685;SDS011;45554;51.096;16.976;2022-10-16T11:26:32;2.50;;;1.90;;
59685;SDS011;45554;51.096;16.976;2022-10-16T11:29:03;3.20;;;1.80;;
59685;SDS011;45554;51.096;16.976;2022-10-16T11:31:46;2.60;;;1.80;;
59685;SDS011;45554;51.096;16.976;2022-10-16T11:34:25;4.20;;;2.10;;
59685;SDS011;45554;51.096;16.976;2022-10-16T11:39:54;3.10;;;1.80;;
59685;SDS011;45554;51.096;16.976;2022-10-16T11:42:34;3.00;;;1.90;;
59685;SDS011;45554;51.096;16.976;2022-10-16T11:45:11;6.00;;;2.10;;
59685;SDS011;45554;51.096;16.976;2022-10-16T11:47:56;2.80;;;1.90;;
59685;SDS011;45554;51.096;16.976;2022-10-16T11:55:52;2.50;;;1.70;;
59685;SDS011;45554;51.096;16.976;2022-10-16T12:03:54;3.10;;;1.90;;
59685;SDS011;45554;51.096;16.976;2022-10-16T12:06:45;2.90;;;2.00;;
59685;SDS011;45554;51.096;16.976;2022-10-16T12:09:22;2.50;;;1.90;;
59685;SDS011;45554;51.096;16.976;2022-10-16T12:11:54;2.90;;;2.10;;
59685;SDS011;45554;51.096;16.976;2022-10-16T12:14:34;3.40;;;2.10;;
59685;SDS011;45554;51.096;16.976;2022-10-16T12:20:27;3.50;;;2.00;;
59685;SDS011;45554;51.096;16.976;2022-10-16T12:23:02;4.80;;;2.50;;
59685;SDS011;45554;51.096;16.976;2022-10-16T12:28:03;3.60;;;2.50;;
59685;SDS011;45554;51.096;16.976;2022-10-16T12:30:55;4.40;;;2.40;;
59685;SDS011;45554;51.096;16.976;2022-10-16T12:33:28;4.50;;;2.30;;
59685;SDS011;45554;51.096;16.976;2022-10-16T12:35:59;5.70;;;2.80;;
59685;SDS011;45554;51.096;16.976;2022-10-16T12:38:31;5.40;;;2.80;;
59685;SDS011;45554;51.096;16.976;2022-10-16T12:41:06;4.70;;;2.60;;
59685;SDS011;45554;51.096;16.976;2022-10-16T12:48:38;5.20;;;3.20;;
59685;SDS011;45554;51.096;16.976;2022-10-16T12:54:02;5.50;;;3.40;;
59685;SDS011;45554;51.096;16.976;2022-10-16T13:08:38;8.00;;;3.40;;
59685;SDS011;45554;51.096;16.976;2022-10-16T13:22:30;4.10;;;2.60;;
59685;SDS011;45554;51.096;16.976;2022-10-16T13:27:52;5.20;;;2.90;;
59685;SDS011;45554;51.096;16.976;2022-10-16T13:30:25;3.80;;;2.70;;
59685;SDS011;45554;51.096;16.976;2022-10-16T13:33:03;5.40;;;3.00;;
59685;SDS011;45554;51.096;16.976;2022-10-16T13:35:35;4.70;;;3.00;;
59685;SDS011;45554;51.096;16.976;2022-10-16T13:38:14;4.60;;;3.00;;
59685;SDS011;45554;51.096;16.976;2022-10-16T13:43:25;5.10;;;3.00;;
59685;SDS011;45554;51.096;16.976;2022-10-16T13:46:01;5.50;;;3.00;;
59685;SDS011;45554;51.096;16.976;2022-10-16T13:48:33;4.90;;;2.90;;
59685;SDS011;45554;51.096;16.976;2022-10-16T13:51:04;5.10;;;3.00;;
59685;SDS011;45554;51.096;16.976;2022-10-16T13:53:46;4.10;;;2.70;;
59685;SDS011;45554;51.096;16.976;2022-10-16T13:56:19;4.40;;;2.80;;
59685;SDS011;45554;51.096;16.976;2022-10-16T13:59:00;4.20;;;2.90;;
59685;SDS011;45554;51.096;16.976;2022-10-16T14:01:51;4.80;;;2.80;;
59685;SDS011;45554;51.096;16.976;2022-10-16T14:04:21;6.10;;;2.90;;
59685;SDS011;45554;51.096;16.976;2022-10-16T14:06:51;6.20;;;2.90;;
59685;SDS011;45554;51.096;16.976;2022-10-16T14:09:25;4.00;;;2.70;;
59685;SDS011;45554;51.096;16.976;2022-10-16T14:12:00;5.10;;;2.70;;
59685;SDS011;45554;51.096;16.976;2022-10-16T14:14:33;5.40;;;2.70;;
59685;SDS011;45554;51.096;16.976;2022-10-16T14:17:13;8.60;;;2.70;;
59685;SDS011;45554;51.096;16.976;2022-10-16T14:19:45;6.60;;;2.40;;
59685;SDS011;45554;51.096;16.976;2022-10-16T14:24:56;4.40;;;2.50;;
59685;SDS011;45554;51.096;16.976;2022-10-16T14:33:00;5.00;;;2.30;;
59685;SDS011;45554;51.096;16.976;2022-10-16T14:35:33;5.90;;;2.30;;
59685;SDS011;45554;51.096;16.976;2022-10-16T14:38:03;5.10;;;2.80;;
59685;SDS011;45554;51.096;16.976;2022-10-16T14:40:36;3.40;;;2.40;;
59685;SDS011;45554;51.096;16.976;2022-10-16T14:43:06;6.90;;;2.30;;
59685;SDS011;45554;51.096;16.976;2022-10-16T14:45:34;3.80;;;2.40;;
59685;SDS011;45554;51.096;16.976;2022-10-16T14:48:05;3.60;;;2.70;;
59685;SDS011;45554;51.096;16.976;2022-10-16T14:50:46;3.80;;;2.70;;
59685;SDS011;45554;51.096;16.976;2022-10-16T14:53:15;3.90;;;2.50;;
59685;SDS011;45554;51.096;16.976;2022-10-16T14:55:43;4.80;;;2.40;;
59685;SDS011;45554;51.096;16.976;2022-10-16T14:58:18;4.60;;;2.40;;
59685;SDS011;45554;51.096;16.976;2022-10-16T15:00:48;4.80;;;2.60;;
59685;SDS011;45554;51.096;16.976;2022-10-16T15:03:17;4.40;;;2.70;;
59685;SDS011;45554;51.096;16.976;2022-10-16T15:05:45;4.90;;;2.80;;
59685;SDS011;45554;51.096;16.976;2022-10-16T15:08:13;4.60;;;2.60;;
59685;SDS011;45554;51.096;16.976;2022-10-16T15:10:42;4.90;;;2.80;;
59685;SDS011;45554;51.096;16.976;2022-10-16T15:13:12;4.40;;;2.80;;
59685;SDS011;45554;51.096;16.976;2022-10-16T15:15:43;5.60;;;3.00;;
59685;SDS011;45554;51.096;16.976;2022-10-16T15:18:13;5.60;;;3.00;;
59685;SDS011;45554;51.096;16.976;2022-10-16T15:20:48;4.70;;;2.90;;
59685;SDS011;45554;51.096;16.976;2022-10-16T15:23:25;5.50;;;3.50;;
59685;SDS011;45554;51.096;16.976;2022-10-16T15:25:57;7.40;;;3.40;;
59685;SDS011;45554;51.096;16.976;2022-10-16T15:28:26;7.80;;;3.40;;
59685;SDS011;45554;51.096;16.976;2022-10-16T15:30:55;5.70;;;3.10;;
59685;SDS011;45554;51.096;16.976;2022-10-16T15:33:25;5.90;;;3.60;;
59685;SDS011;45554;51.096;16.976;2022-10-16T15:36:02;6.50;;;3.50;;
59685;SDS011;45554;51.096;16.976;2022-10-16T15:38:30;6.30;;;4.20;;
59685;SDS011;45554;51.096;16.976;2022-10-16T15:40:59;7.70;;;4.40;;
59685;SDS011;45554;51.096;16.976;2022-10-16T15:43:27;6.80;;;4.60;;
59685;SDS011;45554;51.096;16.976;2022-10-16T15:46:06;8.30;;;4.30;;
59685;SDS011;45554;51.096;16.976;2022-10-16T15:48:40;7.80;;;4.50;;
59685;SDS011;45554;51.096;16.976;2022-10-16T15:51:08;8.10;;;4.40;;
59685;SDS011;45554;51.096;16.976;2022-10-16T15:53:36;7.30;;;4.60;;
59685;SDS011;45554;51.096;16.976;2022-10-16T15:56:05;6.60;;;4.40;;
59685;SDS011;45554;51.096;16.976;2022-10-16T15:58:33;7.20;;;4.80;;
59685;SDS011;45554;51.096;16.976;2022-10-16T16:01:03;9.20;;;5.20;;
59685;SDS011;45554;51.096;16.976;2022-10-16T16:06:07;8.50;;;5.60;;
59685;SDS011;45554;51.096;16.976;2022-10-16T16:08:38;7.90;;;5.10;;
59685;SDS011;45554;51.096;16.976;2022-10-16T16:11:09;7.80;;;5.20;;
59685;SDS011;45554;51.096;16.976;2022-10-16T16:13:39;7.60;;;4.90;;
59685;SDS011;45554;51.096;16.976;2022-10-16T16:16:09;7.60;;;5.20;;
59685;SDS011;45554;51.096;16.976;2022-10-16T16:18:42;8.40;;;5.50;;
59685;SDS011;45554;51.096;16.976;2022-10-16T16:21:11;7.20;;;4.90;;
59685;SDS011;45554;51.096;16.976;2022-10-16T16:23:42;8.80;;;5.60;;
59685;SDS011;45554;51.096;16.976;2022-10-16T16:26:14;7.20;;;4.90;;
59685;SDS011;45554;51.096;16.976;2022-10-16T16:28:54;9.90;;;6.40;;
59685;SDS011;45554;51.096;16.976;2022-10-16T16:31:23;9.40;;;6.30;;
59685;SDS011;45554;51.096;16.976;2022-10-16T16:33:52;9.80;;;6.10;;
59685;SDS011;45554;51.096;16.976;2022-10-16T16:36:21;12.10;;;6.50;;
59685;SDS011;45554;51.096;16.976;2022-10-16T16:38:52;8.70;;;5.70;;
59685;SDS011;45554;51.096;16.976;2022-10-16T16:41:21;9.50;;;6.40;;
59685;SDS011;45554;51.096;16.976;2022-10-16T16:43:50;9.80;;;6.80;;
59685;SDS011;45554;51.096;16.976;2022-10-16T16:46:18;10.10;;;6.80;;
59685;SDS011;45554;51.096;16.976;2022-10-16T16:48:47;10.90;;;6.80;;
59685;SDS011;45554;51.096;16.976;2022-10-16T16:51:18;10.20;;;6.30;;
59685;SDS011;45554;51.096;16.976;2022-10-16T16:53:48;10.70;;;6.90;;
59685;SDS011;45554;51.096;16.976;2022-10-16T16:56:17;11.60;;;7.00;;
59685;SDS011;45554;51.096;16.976;2022-10-16T16:58:50;11.40;;;7.70;;
59685;SDS011;45554;51.096;16.976;2022-10-16T17:01:20;10.70;;;7.60;;
59685;SDS011;45554;51.096;16.976;2022-10-16T17:03:51;10.40;;;7.10;;
59685;SDS011;45554;51.096;16.976;2022-10-16T17:06:21;11.30;;;7.10;;
59685;SDS011;45554;51.096;16.976;2022-10-16T17:08:54;12.90;;;7.10;;
59685;SDS011;45554;51.096;16.976;2022-10-16T17:11:22;11.20;;;7.60;;
59685;SDS011;45554;51.096;16.976;2022-10-16T17:13:53;10.90;;;7.60;;
59685;SDS011;45554;51.096;16.976;2022-10-16T17:16:26;13.10;;;8.10;;
59685;SDS011;45554;51.096;16.976;2022-10-16T17:19:00;14.20;;;7.60;;
59685;SDS011;45554;51.096;16.976;2022-10-16T17:21:29;13.00;;;8.30;;
59685;SDS011;45554;51.096;16.976;2022-10-16T17:24:00;17.50;;;9.10;;
59685;SDS011;45554;51.096;16.976;2022-10-16T17:26:28;14.80;;;9.20;;
59685;SDS011;45554;51.096;16.976;2022-10-16T17:28:58;12.70;;;8.30;;
59685;SDS011;45554;51.096;16.976;2022-10-16T17:31:30;14.30;;;9.00;;
59685;SDS011;45554;51.096;16.976;2022-10-16T17:34:01;15.80;;;8.00;;
59685;SDS011;45554;51.096;16.976;2022-10-16T17:36:34;14.30;;;8.50;;
59685;SDS011;45554;51.096;16.976;2022-10-16T17:39:05;12.10;;;8.50;;
59685;SDS011;45554;51.096;16.976;2022-10-16T17:41:35;13.20;;;7.80;;